Time;durP1;ratioP1;P1;durP2;ratioP2;P2;SDS_P1;SDS_P2;PMS_P1;PMS_P2;Temp;Humidity;BMP_temperature;BMP_pressure;BME280_temperature;BME280_humidity;BME280_pressure;Samples;Min_cycle;Max_cycle;Signal;HPM_P1;HPM_P2
2023/04/12 05:50:49;;;;;;;21.10;16.88;;;;;;;;;;6260541;22;20019;-83
2023/04/12 05:53:15;;;;;;;23.50;16.52;;;;;;;;;;6308640;22;20035;-83
2023/04/12 05:55:40;;;;;;;23.35;17.30;;;;;;;;;;6308698;22;19996;-84
2023/04/12 05:58:06;;;;;;;22.17;16.95;;;;;;;;;;6308571;22;20003;-83
2023/04/12 06:00:32;;;;;;;21.65;17.25;;;;;;;;;;6308598;22;20322;-80
2023/04/12 06:02:57;;;;;;;21.05;16.70;;;;;;;;;;6308753;22;20461;-81
2023/04/12 06:05:22;;;;;;;22.45;16.80;;;;;;;;;;6308363;22;20003;-83
2023/04/12 06:07:48;;;;;;;19.17;15.65;;;;;;;;;;6308684;22;20436;-83
2023/04/12 17:52:50;;;;;;;18.50;13.17;;;;;;;;;;6314740;22;20011;-83
2023/04/12 17:55:18;;;;;;;17.73;12.30;;;;;;;;;;6307467;22;20434;-82
2023/04/12 17:57:44;;;;;;;14.00;10.65;;;;;;;;;;6308857;22;20029;-84
2023/04/12 18:00:13;;;;;;;14.95;11.05;;;;;;;;;;6308195;22;20007;-84
2023/04/12 18:02:45;;;;;;;17.25;11.95;;;;;;;;;;6308739;22;20322;-92
2023/04/12 18:05:11;;;;;;;19.08;13.38;;;;;;;;;;6308646;22;20089;-79
2023/04/12 18:07:38;;;;;;;17.15;12.57;;;;;;;;;;6308433;22;20003;-81
2023/04/12 18:10:08;;;;;;;17.77;12.85;;;;;;;;;;6308408;22;20003;-82
2023/04/12 18:12:33;;;;;;;16.05;11.88;;;;;;;;;;6307169;22;20026;-81
2023/04/12 18:14:59;;;;;;;16.05;11.85;;;;;;;;;;6308491;22;20081;-80
2023/04/12 18:17:24;;;;;;;20.08;13.25;;;;;;;;;;6308573;22;20371;-83
2023/04/12 18:19:50;;;;;;;20.77;13.93;;;;;;;;;;6308192;22;20014;-82
2023/04/12 18:22:15;;;;;;;18.17;12.55;;;;;;;;;;6308287;22;20003;-82
2023/04/12 18:24:41;;;;;;;18.70;13.25;;;;;;;;;;6308420;22;20060;-82
2023/04/12 18:27:07;;;;;;;17.70;12.60;;;;;;;;;;6308310;22;19999;-84
2023/04/12 18:29:33;;;;;;;16.83;12.80;;;;;;;;;;6308145;22;20007;-85
2023/04/12 18:31:58;;;;;;;20.42;14.50;;;;;;;;;;6308172;22;20010;-85
2023/04/12 18:34:24;;;;;;;17.35;13.27;;;;;;;;;;6308308;22;20000;-86
2023/04/12 18:36:50;;;;;;;14.25;11.48;;;;;;;;;;6308098;22;19999;-85
2023/04/12 18:39:15;;;;;;;15.63;12.50;;;;;;;;;;6308105;22;20090;-85
2023/04/12 18:41:41;;;;;;;16.15;11.75;;;;;;;;;;6308730;22;20006;-85
2023/04/12 18:44:08;;;;;;;15.75;11.25;;;;;;;;;;6306666;22;20003;-87
2023/04/12 18:46:34;;;;;;;15.85;11.60;;;;;;;;;;6306568;22;20011;-86
2023/04/12 18:49:05;;;;;;;17.73;12.85;;;;;;;;;;6308283;22;20379;-85
2023/04/12 18:51:31;;;;;;;18.88;12.85;;;;;;;;;;6308108;22;20064;-86
2023/04/12 18:53:58;;;;;;;16.63;11.85;;;;;;;;;;6308117;22;20027;-84
2023/04/12 18:56:24;;;;;;;16.77;12.35;;;;;;;;;;6308475;22;20026;-85
2023/04/12 18:58:50;;;;;;;15.00;11.65;;;;;;;;;;6307701;22;20352;-85
2023/04/12 19:01:17;;;;;;;16.25;11.77;;;;;;;;;;6308099;22;20006;-85
2023/04/12 19:03:45;;;;;;;15.55;11.57;;;;;;;;;;6306287;22;20003;-86
2023/04/12 19:06:12;;;;;;;20.20;14.13;;;;;;;;;;6308061;22;20004;-86
2023/04/12 19:08:38;;;;;;;20.52;14.23;;;;;;;;;;6308456;22;20032;-85
2023/04/12 19:11:05;;;;;;;17.92;13.45;;;;;;;;;;6308117;22;20070;-85
2023/04/12 19:13:31;;;;;;;21.17;14.82;;;;;;;;;;6308167;22;20010;-84
2023/04/12 19:15:57;;;;;;;16.45;12.52;;;;;;;;;;6308183;22;20003;-84
2023/04/12 19:18:26;;;;;;;27.27;19.02;;;;;;;;;;6307672;22;20099;-86
2023/04/12 19:20:56;;;;;;;19.17;14.88;;;;;;;;;;6308111;22;20053;-85
2023/04/12 19:23:26;;;;;;;22.20;17.05;;;;;;;;;;6306723;22;20041;-85
2023/04/12 19:25:51;;;;;;;;;;;;;;;;;;6308542;22;20034;-84
2023/04/12 19:28:18;;;;;;;18.27;13.88;;;;;;;;;;6308096;22;19907;-84
2023/04/12 19:30:44;;;;;;;18.48;13.75;;;;;;;;;;6307932;22;20079;-84
2023/04/12 19:33:09;;;;;;;18.30;13.75;;;;;;;;;;6307927;22;20027;-85
2023/04/12 19:35:35;;;;;;;18.30;13.55;;;;;;;;;;6306119;22;20004;-85
2023/04/12 19:38:02;;;;;;;19.05;13.35;;;;;;;;;;6307984;22;20415;-85
2023/04/12 19:40:28;;;;;;;18.23;14.70;;;;;;;;;;6307806;22;20026;-84
2023/04/12 19:42:54;;;;;;;16.45;13.50;;;;;;;;;;6307838;22;20426;-85
2023/04/12 19:45:20;;;;;;;21.30;14.80;;;;;;;;;;6307923;22;20053;-84
2023/04/12 19:47:46;;;;;;;20.25;15.20;;;;;;;;;;6306104;22;20011;-84
2023/04/12 19:50:14;;;;;;;19.58;15.40;;;;;;;;;;6306150;22;20011;-84
2023/04/12 19:52:43;;;;;;;23.38;16.30;;;;;;;;;;6307548;22;20489;-85
2023/04/12 19:55:10;;;;;;;20.83;15.27;;;;;;;;;;6308066;22;20003;-85
2023/04/12 19:57:36;;;;;;;19.90;15.13;;;;;;;;;;6306237;22;20011;-83
2023/04/12 20:00:11;;;;;;;22.00;17.20;;;;;;;;;;6307512;22;20330;-84
2023/04/12 20:02:38;;;;;;;19.05;14.70;;;;;;;;;;6308180;22;20032;-84
2023/04/12 20:05:06;;;;;;;21.02;15.35;;;;;;;;;;6307864;22;19999;-84
2023/04/12 20:07:36;;;;;;;20.33;16.02;;;;;;;;;;6307629;22;20007;-83
2023/04/12 20:10:05;;;;;;;23.65;16.17;;;;;;;;;;6299299;22;20015;-83
2023/04/12 20:12:39;;;;;;;20.13;15.27;;;;;;;;;;6309751;22;20003;-84
2023/04/12 20:15:10;;;;;;;19.63;15.48;;;;;;;;;;6309473;22;20368;-83
2023/04/12 20:17:40;;;;;;;23.23;17.13;;;;;;;;;;6308362;22;20060;-84
2023/04/12 20:20:09;;;;;;;;;;;;;;;;;;6308425;22;20007;-83
2023/04/12 20:22:36;;;;;;;;;;;;;;;;;;6310235;22;19922;-85
2023/04/12 20:25:04;;;;;;;23.58;16.27;;;;;;;;;;6307805;22;20341;-84
2023/04/12 20:27:30;;;;;;;23.65;16.85;;;;;;;;;;6309861;22;20006;-84
2023/04/12 20:29:59;;;;;;;24.35;18.30;;;;;;;;;;6307981;22;20011;-84
2023/04/12 20:32:25;;;;;;;24.50;19.05;;;;;;;;;;6309420;22;20003;-84
2023/04/12 20:34:50;;;;;;;25.33;18.88;;;;;;;;;;6309615;22;20411;-84
2023/04/12 20:37:16;;;;;;;27.05;18.98;;;;;;;;;;6309407;22;20006;-84
2023/04/12 20:39:42;;;;;;;25.85;19.80;;;;;;;;;;6309303;22;20018;-85
2023/04/12 20:42:09;;;;;;;27.30;18.52;;;;;;;;;;6309506;22;20292;-84
2023/04/12 20:44:36;;;;;;;26.92;18.50;;;;;;;;;;6307993;22;20089;-84
2023/04/12 20:47:02;;;;;;;25.33;18.25;;;;;;;;;;6309562;22;20031;-84
2023/04/12 20:49:29;;;;;;;27.70;19.98;;;;;;;;;;6309385;22;20011;-84
2023/04/12 20:51:59;;;;;;;27.10;18.98;;;;;;;;;;6307532;22;20380;-85
2023/04/12 20:54:28;;;;;;;23.02;18.42;;;;;;;;;;6309280;22;20321;-84
2023/04/12 20:56:54;;;;;;;28.00;19.10;;;;;;;;;;6310342;22;20070;-85
2023/04/12 20:59:21;;;;;;;26.67;19.42;;;;;;;;;;6309385;22;20248;-85
2023/04/12 21:01:51;;;;;;;27.45;19.60;;;;;;;;;;6309185;22;19999;-84
2023/04/12 21:04:18;;;;;;;27.33;19.88;;;;;;;;;;6309397;22;20007;-84
2023/04/12 21:06:46;;;;;;;25.35;18.75;;;;;;;;;;6309115;22;19999;-84
2023/04/12 21:09:13;;;;;;;26.77;19.80;;;;;;;;;;6308999;22;20011;-84
2023/04/12 21:11:42;;;;;;;28.90;19.77;;;;;;;;;;6309089;22;20003;-84
2023/04/12 21:14:09;;;;;;;28.52;20.50;;;;;;;;;;6309374;22;20457;-84
2023/04/12 21:16:38;;;;;;;26.55;19.27;;;;;;;;;;6309127;22;20006;-84
2023/04/12 21:19:06;;;;;;;25.15;19.98;;;;;;;;;;6308743;22;19999;-84
2023/04/12 21:21:35;;;;;;;26.33;19.38;;;;;;;;;;6308786;22;20139;-85
2023/04/12 21:24:02;;;;;;;26.17;20.00;;;;;;;;;;6308776;22;20042;-84
2023/04/12 21:26:30;;;;;;;28.15;20.42;;;;;;;;;;6307398;22;20403;-83
2023/04/12 21:28:56;;;;;;;26.38;19.83;;;;;;;;;;6308874;22;20045;-83
2023/04/12 21:31:22;;;;;;;26.98;19.85;;;;;;;;;;6308906;22;20005;-82
2023/04/12 21:33:49;;;;;;;27.48;19.95;;;;;;;;;;6309038;22;19999;-83
2023/04/12 21:36:15;;;;;;;26.83;19.67;;;;;;;;;;6308859;22;19995;-83
2023/04/12 21:38:41;;;;;;;26.92;19.98;;;;;;;;;;6308711;22;20003;-83
2023/04/12 21:41:09;;;;;;;26.60;18.70;;;;;;;;;;6309087;22;20003;-84
2023/04/12 21:43:36;;;;;;;27.73;21.10;;;;;;;;;;6308831;22;20010;-84
2023/04/12 21:46:01;;;;;;;27.35;19.88;;;;;;;;;;6308744;22;20044;-84
2023/04/12 21:48:27;;;;;;;27.45;19.55;;;;;;;;;;6307035;22;20003;-83
2023/04/12 21:50:52;;;;;;;23.33;18.48;;;;;;;;;;6307070;22;20019;-83
2023/04/12 21:53:18;;;;;;;24.80;19.27;;;;;;;;;;6308573;22;20015;-84
2023/04/12 21:55:43;;;;;;;26.58;19.83;;;;;;;;;;6308816;22;19999;-83
2023/04/12 21:58:08;;;;;;;23.90;17.63;;;;;;;;;;6308554;22;19999;-83
2023/04/12 22:00:35;;;;;;;27.50;19.25;;;;;;;;;;6308534;22;20377;-84
2023/04/12 22:03:01;;;;;;;24.45;18.63;;;;;;;;;;6308779;22;20006;-82
